Time;durP1;ratioP1;P1;durP2;ratioP2;P2;SDS_P1;SDS_P2;PMS_P1;PMS_P2;Temp;Humidity;BMP_temperature;BMP_pressure;BME280_temperature;BME280_humidity;BME280_pressure;Samples;Min_cycle;Max_cycle;Signal;HPM_P1;HPM_P2
2023/08/25 00:02:23;;;;;;;0.00;0.00;;;;;;;18.13;56.52;100545.47;7363622;19;20410;-56
2023/08/25 00:04:48;;;;;;;0.00;0.00;;;;;;;18.13;56.10;100534.91;7358936;19;20018;-57
2023/08/25 00:07:14;;;;;;;0.03;0.03;;;;;;;18.11;56.59;100528.88;7364297;19;20029;-58
2023/08/25 00:09:39;;;;;;;0.00;0.00;;;;;;;18.07;56.35;100522.03;7359987;19;20044;-58
2023/08/25 00:12:05;;;;;;;0.10;0.10;;;;;;;18.06;55.85;100525.63;7364859;19;20025;-56
2023/08/25 00:14:31;;;;;;;0.00;0.00;;;;;;;18.05;56.32;100535.34;7361744;19;20009;-57
2023/08/25 00:16:56;;;;;;;0.00;0.00;;;;;;;18.03;56.24;100528.44;7361342;19;20006;-55
2023/08/25 00:19:21;;;;;;;0.10;0.10;;;;;;;18.01;56.32;100522.41;7359348;19;20011;-55
2023/08/25 00:21:47;;;;;;;0.00;0.00;;;;;;;17.98;55.73;100523.41;7370058;19;20504;-57
2023/08/25 00:24:12;;;;;;;0.00;0.00;;;;;;;17.86;55.94;100511.75;7368613;19;20021;-56
2023/08/25 00:26:39;;;;;;;0.00;0.00;;;;;;;17.97;55.70;100527.00;7362016;19;20114;-58
2023/08/25 00:29:05;;;;;;;0.10;0.10;;;;;;;17.96;55.80;100525.28;7359221;19;20811;-57
2023/08/25 00:31:30;;;;;;;0.00;0.00;;;;;;;17.96;56.04;100527.09;7360217;19;20041;-55
2023/08/25 00:33:57;;;;;;;0.08;0.08;;;;;;;17.93;55.75;100524.59;7362275;19;20014;-56
2023/08/25 00:36:24;;;;;;;0.00;0.00;;;;;;;17.96;55.89;100529.72;7371436;19;20498;-56
2023/08/25 00:38:51;;;;;;;0.10;0.10;;;;;;;17.95;56.10;100534.16;7368785;19;20014;-58
2023/08/25 00:41:17;;;;;;;0.10;0.10;;;;;;;17.94;56.17;100531.59;7370736;19;20469;-56
2023/08/25 00:43:42;;;;;;;0.00;0.00;;;;;;;17.97;56.24;100531.44;7363709;19;20126;-57
2023/08/25 00:46:08;;;;;;;0.03;0.03;;;;;;;17.98;56.62;100525.19;7360186;19;20011;-56
2023/08/25 00:48:34;;;;;;;0.00;0.00;;;;;;;17.88;55.74;100507.22;7340296;19;21235;-57
2023/08/25 00:50:59;;;;;;;0.05;0.05;;;;;;;17.86;55.99;100509.09;7365156;19;20011;-57
2023/08/25 00:53:25;;;;;;;0.00;0.00;;;;;;;17.98;56.37;100527.84;7371466;19;20021;-57
2023/08/25 00:55:53;;;;;;;0.00;0.00;;;;;;;17.95;56.26;100517.47;7370339;19;20014;-57
2023/08/25 00:58:18;;;;;;;;;;;;;;;18.06;52.92;100526.47;7367841;19;20007;-57
2023/08/25 01:00:45;;;;;;;0.00;0.00;;;;;;;17.98;56.10;100514.63;7361872;19;19923;-57
2023/08/25 01:03:11;;;;;;;0.00;0.00;;;;;;;17.97;56.47;100515.56;7360660;19;20800;-55
2023/08/25 01:05:39;;;;;;;0.00;0.00;;;;;;;18.06;55.63;100536.19;7359940;19;20502;-58
2023/08/25 01:08:05;;;;;;;0.00;0.00;;;;;;;18.07;56.49;100527.31;7354632;19;20014;-57
2023/08/25 01:10:50;;;;;;;0.00;0.00;;;;;;;18.10;55.07;100519.25;7362286;19;20010;-57
2023/08/25 01:13:26;;;;;;;0.00;0.00;;;;;;;18.09;55.39;100520.16;7361413;19;20090;-57
2023/08/25 01:15:53;;;;;;;0.00;0.00;;;;;;;18.09;56.51;100515.72;7368381;19;20368;-57
2023/08/25 01:18:28;;;;;;;0.00;0.00;;;;;;;18.11;55.23;100518.28;7367570;19;20794;-57
2023/08/25 01:20:55;;;;;;;0.00;0.00;;;;;;;18.11;56.31;100513.00;7357712;19;20018;-57
2023/08/25 01:23:47;;;;;;;0.10;0.10;;;;;;;18.12;55.96;100520.00;7359245;19;20015;-57
2023/08/25 01:26:13;;;;;;;0.00;0.00;;;;;;;17.98;56.56;100491.69;7358163;19;20448;-58
2023/08/25 01:28:41;;;;;;;0.00;0.00;;;;;;;18.04;55.88;100501.91;7362184;19;20019;-57
2023/08/25 01:31:07;;;;;;;0.05;0.05;;;;;;;18.11;56.30;100513.00;7369738;19;20026;-58
2023/08/25 01:33:33;;;;;;;0.05;0.05;;;;;;;18.05;56.38;100502.78;7365517;19;20026;-57
2023/08/25 01:36:10;;;;;;;0.10;0.10;;;;;;;18.15;55.50;100514.53;7368055;19;20811;-57
2023/08/25 01:38:43;;;;;;;0.10;0.10;;;;;;;18.14;55.95;100512.81;7364890;19;20014;-58
2023/08/25 01:41:22;;;;;;;0.00;0.00;;;;;;;18.13;55.95;100514.59;7366420;19;20033;-58
2023/08/25 01:43:51;;;;;;;0.10;0.10;;;;;;;18.12;56.14;100514.72;7362966;19;20728;-56
2023/08/25 01:46:18;;;;;;;0.00;0.00;;;;;;;18.12;56.27;100509.41;7365855;19;20017;-58
2023/08/25 01:48:47;;;;;;;0.00;0.00;;;;;;;18.11;56.50;100507.72;7361907;19;20014;-56
2023/08/25 01:51:14;;;;;;;0.00;0.00;;;;;;;18.10;56.12;100506.88;7366569;19;20864;-57
2023/08/25 01:53:44;;;;;;;0.05;0.05;;;;;;;18.10;56.26;100506.88;7366013;19;20098;-57
2023/08/25 01:56:09;;;;;;;0.05;0.05;;;;;;;18.09;56.32;100499.00;7366082;19;20038;-57
2023/08/25 01:58:35;;;;;;;0.10;0.10;;;;;;;18.09;56.93;100504.28;7366966;19;20433;-57
2023/08/25 02:01:00;;;;;;;0.10;0.10;;;;;;;18.08;56.29;100497.31;7371498;19;20017;-57
2023/08/25 02:03:26;;;;;;;0.00;0.00;;;;;;;18.07;56.39;100492.97;7368661;19;20031;-57
2023/08/25 02:05:51;;;;;;;0.03;0.03;;;;;;;18.06;56.47;100493.91;7365927;19;20381;-56
2023/08/25 02:08:16;;;;;;;0.05;0.05;;;;;;;18.07;56.58;100495.63;7367327;19;20121;-57
2023/08/25 02:10:42;;;;;;;0.03;0.03;;;;;;;18.06;57.03;100492.13;7368763;19;20035;-57
2023/08/25 02:13:07;;;;;;;0.03;0.03;;;;;;;18.04;56.77;100490.50;7365241;19;20476;-57
2023/08/25 02:15:33;;;;;;;0.00;0.00;;;;;;;18.05;56.97;100500.16;7369816;19;20007;-58
2023/08/25 02:17:58;;;;;;;0.10;0.10;;;;;;;18.03;57.02;100494.94;7365421;19;20018;-57
2023/08/25 02:20:23;;;;;;;0.10;0.10;;;;;;;18.01;56.76;100493.34;7366856;19;20082;-56
2023/08/25 02:22:49;;;;;;;0.10;0.10;;;;;;;18.01;56.85;100495.97;7369322;19;20014;-58
2023/08/25 02:25:14;;;;;;;0.10;0.10;;;;;;;17.98;56.99;100491.69;7367392;19;20529;-57
2023/08/25 02:27:40;;;;;;;0.00;0.00;;;;;;;17.99;56.64;100493.41;7366605;19;20010;-57
2023/08/25 02:30:06;;;;;;;0.10;0.10;;;;;;;17.96;56.44;100488.31;7367093;19;20031;-56
2023/08/25 02:32:31;;;;;;;0.03;0.03;;;;;;;17.97;56.47;100489.16;7367357;19;20046;-57
2023/08/25 02:34:57;;;;;;;0.00;0.00;;;;;;;17.96;56.61;100482.16;7368222;19;20010;-57
2023/08/25 02:37:22;;;;;;;0.05;0.05;;;;;;;17.95;56.37;100483.13;7368618;19;20049;-57
2023/08/25 02:39:48;;;;;;;0.10;0.10;;;;;;;17.92;56.50;100476.19;7367117;19;20010;-56
2023/08/25 02:42:13;;;;;;;0.00;0.00;;;;;;;17.92;56.56;100475.34;7371079;19;20034;-57
2023/08/25 02:44:38;;;;;;;0.00;0.00;;;;;;;17.88;56.42;100475.50;7368413;19;20006;-56
2023/08/25 02:47:04;;;;;;;0.05;0.05;;;;;;;17.89;56.26;100477.25;7363174;19;20358;-58
2023/08/25 02:49:29;;;;;;;0.00;0.00;;;;;;;17.85;56.44;100473.06;7364383;19;20033;-57
2023/08/25 02:51:56;;;;;;;0.03;0.03;;;;;;;17.88;56.77;100475.50;7362944;19;20070;-57
2023/08/25 02:54:22;;;;;;;0.00;0.00;;;;;;;17.87;56.69;100463.25;7366753;19;20010;-56
2023/08/25 02:56:48;;;;;;;0.00;0.00;;;;;;;17.87;56.69;100463.25;7364478;19;20754;-58
2023/08/25 02:59:14;;;;;;;0.00;0.00;;;;;;;17.87;56.67;100467.69;7370374;19;20511;-55
2023/08/25 03:01:39;;;;;;;0.00;0.00;;;;;;;17.85;56.91;100459.84;7369307;19;20002;-57
2023/08/25 03:04:04;;;;;;;0.10;0.10;;;;;;;17.84;56.48;100462.56;7361853;19;20474;-57
2023/08/25 03:06:30;;;;;;;0.10;0.10;;;;;;;17.82;56.71;100457.38;7370436;19;20019;-57
2023/08/25 03:08:55;;;;;;;0.10;0.10;;;;;;;17.79;56.86;100454.94;7375266;19;20014;-57
2023/08/25 03:11:21;;;;;;;0.10;0.10;;;;;;;17.78;56.51;100453.19;7371028;19;20006;-57
2023/08/25 03:13:46;;;;;;;0.03;0.03;;;;;;;17.61;56.64;100429.50;7370116;19;20026;-55
2023/08/25 03:16:11;;;;;;;0.10;0.10;;;;;;;17.67;56.67;100445.00;7368386;19;20006;-58
2023/08/25 03:18:37;;;;;;;0.00;0.00;;;;;;;17.71;56.41;100454.47;7359835;19;20026;-57
2023/08/25 03:21:03;;;;;;;0.10;0.10;;;;;;;17.68;56.66;100451.13;7354404;19;20458;-58
2023/08/25 03:23:29;;;;;;;0.05;0.05;;;;;;;17.63;56.84;100443.47;7366876;19;20014;-57
2023/08/25 03:25:54;;;;;;;0.00;0.00;;;;;;;17.62;56.77;100441.78;7364103;19;20116;-56
2023/08/25 03:28:20;;;;;;;0.10;0.10;;;;;;;17.60;56.97;100433.09;7368025;19;20025;-57
2023/08/25 03:30:49;;;;;;;0.00;0.00;;;;;;;17.60;56.78;100433.09;7364738;19;20003;-56
2023/08/25 03:33:15;;;;;;;0.10;0.10;;;;;;;17.56;57.01;100431.56;7365604;19;20022;-58
2023/08/25 03:35:40;;;;;;;0.00;0.00;;;;;;;17.51;57.54;100426.53;7369142;19;20010;-57
2023/08/25 03:38:06;;;;;;;0.03;0.03;;;;;;;17.52;57.19;100435.31;7369083;19;20006;-57
2023/08/25 03:40:31;;;;;;;0.00;0.00;;;;;;;17.49;57.28;100428.41;7368306;19;20039;-57
2023/08/25 03:42:56;;;;;;;0.00;0.00;;;;;;;17.47;57.13;100427.63;7365474;19;20521;-56
2023/08/25 03:45:22;;;;;;;0.00;0.00;;;;;;;17.45;57.71;100432.16;7365282;19;20011;-58
2023/08/25 03:47:47;;;;;;;0.10;0.10;;;;;;;17.44;57.69;100429.63;7362944;19;20010;-57
2023/08/25 03:50:13;;;;;;;0.00;0.00;;;;;;;17.43;57.12;100414.69;7360847;19;20019;-57
2023/08/25 03:52:38;;;;;;;0.00;0.00;;;;;;;17.40;57.77;100409.59;7365167;19;20010;-56
2023/08/25 03:55:04;;;;;;;0.10;0.10;;;;;;;17.37;57.67;100406.16;7366695;19;20124;-57
2023/08/25 03:57:30;;;;;;;0.00;0.00;;;;;;;17.34;57.72;100406.38;7367754;19;20006;-57
2023/08/25 03:59:55;;;;;;;0.00;0.00;;;;;;;17.32;57.48;100413.50;7363170;19;20442;-57
2023/08/25 04:02:21;;;;;;;0.03;0.03;;;;;;;17.31;58.41;100405.66;7367266;19;20328;-55
2023/08/25 04:04:46;;;;;;;0.00;0.00;;;;;;;17.29;57.80;100407.56;7366252;19;20017;-57
2023/08/25 04:07:15;;;;;;;0.10;0.10;;;;;;;17.26;57.52;100408.56;7366547;19;20007;-57
2023/08/25 04:09:41;;;;;;;0.00;0.00;;;;;;;17.16;57.96;100391.53;7363197;19;20595;-57
2023/08/25 04:12:07;;;;;;;0.10;0.10;;;;;;;17.25;57.84;100406.88;7365928;19;20014;-56
2023/08/25 04:14:32;;;;;;;0.10;0.10;;;;;;;17.24;58.18;100404.31;7361908;19;20038;-57
2023/08/25 04:16:57;;;;;;;0.10;0.10;;;;;;;17.23;58.22;100397.31;7363792;19;20010;-57
2023/08/25 04:19:23;;;;;;;0.10;0.10;;;;;;;17.22;58.37;100401.75;7367518;19;20685;-58
2023/08/25 04:21:49;;;;;;;0.10;0.10;;;;;;;17.19;57.85;100394.00;7362218;19;20010;-55
2023/08/25 04:24:17;;;;;;;0.00;0.00;;;;;;;17.21;57.92;100401.84;7368185;19;20021;-57
2023/08/25 04:26:42;;;;;;;0.00;0.00;;;;;;;17.18;57.84;100402.00;7361258;19;20014;-56
2023/08/25 04:29:09;;;;;;;0.10;0.10;;;;;;;17.16;58.26;100410.00;7366887;19;20033;-58
2023/08/25 04:31:35;;;;;;;0.00;0.00;;;;;;;17.14;58.18;100414.53;7366041;19;20015;-56
2023/08/25 04:34:00;;;;;;;0.10;0.10;;;;;;;17.12;58.05;100403.19;7364853;19;20505;-57
2023/08/25 04:36:26;;;;;;;0.10;0.10;;;;;;;17.09;58.58;100406.84;7364749;19;20017;-57
2023/08/25 04:38:51;;;;;;;0.00;0.00;;;;;;;17.09;58.19;100390.19;7365857;19;20486;-55
2023/08/25 04:41:16;;;;;;;0.10;0.10;;;;;;;17.07;58.58;100397.31;7364290;19;20003;-56
2023/08/25 04:43:42;;;;;;;0.00;0.00;;;;;;;17.05;58.42;100392.13;7363475;19;20019;-56
2023/08/25 04:46:07;;;;;;;0.10;0.10;;;;;;;17.03;57.70;100386.09;7364405;19;20006;-57
2023/08/25 04:48:33;;;;;;;0.00;0.00;;;;;;;17.01;58.27;100379.19;7359565;19;20014;-57
2023/08/25 04:50:58;;;;;;;0.00;0.00;;;;;;;16.99;58.34;100378.44;7364300;19;20007;-57
2023/08/25 04:53:23;;;;;;;0.00;0.00;;;;;;;16.98;58.73;100384.59;7363553;19;20007;-56
2023/08/25 04:55:49;;;;;;;0.00;0.00;;;;;;;16.93;58.23;100376.97;7363313;19;20018;-58
2023/08/25 04:58:14;;;;;;;0.00;0.00;;;;;;;16.91;58.73;100367.44;7363459;19;20026;-58
2023/08/25 05:00:40;;;;;;;0.00;0.00;;;;;;;16.94;58.51;100370.75;7363880;19;20098;-55
2023/08/25 05:03:07;;;;;;;0.00;0.00;;;;;;;16.95;58.54;100364.53;7364683;19;20304;-58
2023/08/25 05:05:32;;;;;;;0.00;0.00;;;;;;;16.93;58.41;100370.81;7369982;19;20017;-57
2023/08/25 05:07:58;;;;;;;0.05;0.05;;;;;;;16.92;58.32;100371.75;7370832;19;20363;-57
2023/08/25 05:10:23;;;;;;;0.00;0.00;;;;;;;16.90;58.68;100366.56;7370381;19;20007;-57
2023/08/25 05:12:49;;;;;;;0.00;0.00;;;;;;;16.89;58.06;100361.41;7372164;19;20018;-57
2023/08/25 05:15:14;;;;;;;0.00;0.00;;;;;;;16.86;58.21;100368.53;7372963;19;20341;-55
2023/08/25 05:17:40;;;;;;;0.10;0.10;;;;;;;16.83;57.95;100363.44;7370399;19;20034;-57
2023/08/25 05:20:08;;;;;;;0.00;0.00;;;;;;;16.84;58.11;100359.00;7371668;19;20413;-56
2023/08/25 05:22:33;;;;;;;0.00;0.00;;;;;;;16.81;58.48;100369.69;7369022;19;20015;-56
2023/08/25 05:24:59;;;;;;;0.00;0.00;;;;;;;16.79;58.64;100372.44;7370805;19;20643;-57
2023/08/25 05:27:24;;;;;;;0.08;0.08;;;;;;;16.78;58.39;100369.88;7365865;19;20002;-57
2023/08/25 05:29:50;;;;;;;0.00;0.00;;;;;;;16.77;58.60;100363.72;7369388;19;20018;-58
2023/08/25 05:32:15;;;;;;;0.10;0.10;;;;;;;16.77;58.32;100373.44;7368565;19;20025;-58
2023/08/25 05:34:40;;;;;;;0.00;0.00;;;;;;;16.76;58.76;100369.94;7371452;19;20053;-57
2023/08/25 05:37:06;;;;;;;0.00;0.00;;;;;;;16.75;58.61;100370.03;7368594;19;20747;-58
2023/08/25 05:39:31;;;;;;;0.10;0.10;;;;;;;16.73;58.80;100370.13;7374211;19;20724;-57
2023/08/25 05:41:57;;;;;;;0.10;0.10;;;;;;;16.73;58.68;100366.66;7370007;19;20015;-57
2023/08/25 05:44:22;;;;;;;0.10;0.10;;;;;;;16.73;58.91;100378.03;7371956;19;20007;-56
2023/08/25 05:46:48;;;;;;;0.08;0.08;;;;;;;16.73;58.78;100367.50;7375584;19;20018;-57
2023/08/25 05:49:13;;;;;;;0.08;0.08;;;;;;;16.61;59.08;100357.56;7367434;19;20022;-57
2023/08/25 05:51:39;;;;;;;0.00;0.00;;;;;;;16.73;58.70;100372.78;7363077;19;20355;-57
2023/08/25 05:54:04;;;;;;;0.00;0.00;;;;;;;16.72;59.02;100375.47;7365328;19;20018;-58
2023/08/25 05:56:30;;;;;;;0.03;0.03;;;;;;;16.73;58.69;100374.56;7373430;19;20493;-57
2023/08/25 05:59:00;;;;;;;0.00;0.00;;;;;;;16.75;58.34;100370.88;7371431;19;20006;-57
2023/08/25 06:01:25;;;;;;;0.00;0.00;;;;;;;16.72;58.65;100373.69;7373289;19;20022;-58
2023/08/25 06:03:50;;;;;;;0.10;0.10;;;;;;;16.72;58.99;100371.03;7370619;19;20485;-57
2023/08/25 06:06:16;;;;;;;0.00;0.00;;;;;;;16.71;59.10;100377.25;7370775;19;20066;-56
2023/08/25 06:08:42;;;;;;;0.00;0.00;;;;;;;16.70;59.12;100370.25;7371931;19;20019;-57
2023/08/25 06:11:07;;;;;;;0.00;0.00;;;;;;;16.71;59.32;100371.97;7372436;19;20028;-58
2023/08/25 06:13:33;;;;;;;0.00;0.00;;;;;;;16.70;59.23;100372.88;7370005;19;20011;-56
2023/08/25 06:15:58;;;;;;;0.00;0.00;;;;;;;16.69;58.64;100373.81;7373238;19;20101;-58
2023/08/25 06:18:24;;;;;;;0.00;0.00;;;;;;;16.64;59.08;100367.09;7370030;19;20865;-57
2023/08/25 06:20:53;;;;;;;0.10;0.10;;;;;;;16.67;58.61;100373.03;7372659;19;20558;-57
2023/08/25 06:23:19;;;;;;;0.00;0.00;;;;;;;16.64;59.09;100381.13;7369830;19;20784;-58
2023/08/25 06:25:45;;;;;;;0.00;0.00;;;;;;;16.60;59.01;100377.78;7375903;19;20544;-57
2023/08/25 06:28:10;;;;;;;0.00;0.00;;;;;;;16.57;58.97;100371.81;7376702;19;20014;-57
2023/08/25 06:30:36;;;;;;;0.00;0.00;;;;;;;16.55;59.00;100373.69;7374792;19;20034;-57
2023/08/25 06:33:02;;;;;;;0.00;0.00;;;;;;;16.51;59.00;100374.78;7371961;19;20011;-58
2023/08/25 06:35:27;;;;;;;0.10;0.10;;;;;;;16.50;59.09;100376.56;7368786;19;20003;-58
2023/08/25 06:37:53;;;;;;;0.00;0.00;;;;;;;16.48;59.00;100367.06;7373966;19;20678;-57
2023/08/25 06:40:18;;;;;;;0.00;0.00;;;;;;;16.47;59.59;100375.88;7373209;19;20014;-57
2023/08/25 06:42:44;;;;;;;0.08;0.08;;;;;;;16.45;59.55;100377.75;7371633;19;20015;-57
2023/08/25 06:45:09;;;;;;;0.00;0.00;;;;;;;16.46;59.25;100380.28;7369002;19;20015;-58
2023/08/25 06:47:35;;;;;;;0.10;0.10;;;;;;;16.41;59.49;100381.47;7370503;19;20017;-57
2023/08/25 06:50:05;;;;;;;0.00;0.00;;;;;;;16.46;59.38;100380.28;7368511;19;20058;-58
2023/08/25 06:52:31;;;;;;;0.00;0.00;;;;;;;16.42;59.44;100383.16;7372621;19;20018;-56
2023/08/25 06:54:57;;;;;;;0.10;0.10;;;;;;;16.45;59.63;100388.28;7370621;19;20826;-57
2023/08/25 06:57:22;;;;;;;0.00;0.00;;;;;;;16.45;59.40;100388.28;7373018;19;20017;-58
2023/08/25 06:59:48;;;;;;;0.00;0.00;;;;;;;16.45;59.50;100383.88;7371055;19;20007;-56
2023/08/25 07:02:13;;;;;;;0.00;0.00;;;;;;;16.46;59.96;100384.72;7365020;19;20003;-58
2023/08/25 07:04:39;;;;;;;0.10;0.10;;;;;;;16.45;59.71;100377.75;7369863;19;20031;-57
2023/08/25 07:07:06;;;;;;;0.00;0.00;;;;;;;16.48;59.75;100382.88;7363684;19;20021;-58
2023/08/25 07:09:31;;;;;;;0.10;0.10;;;;;;;16.49;59.65;100384.56;7366096;19;20018;-58
2023/08/25 07:11:56;;;;;;;0.10;0.10;;;;;;;16.52;59.86;100384.38;7368627;19;20114;-57
2023/08/25 07:14:22;;;;;;;0.00;0.00;;;;;;;16.54;60.00;100382.53;7370406;19;20027;-57
2023/08/25 07:16:48;;;;;;;0.05;0.05;;;;;;;16.51;59.97;100387.97;7363456;19;20010;-58
2023/08/25 07:19:15;;;;;;;0.08;0.08;;;;;;;16.59;59.80;100391.91;7369145;19;20015;-58
2023/08/25 07:21:40;;;;;;;0.10;0.10;;;;;;;16.60;60.16;100384.84;7366420;19;20048;-55
2023/08/25 07:24:06;;;;;;;0.00;0.00;;;;;;;16.63;59.58;100387.34;7345314;19;20566;-57
2023/08/25 07:26:31;;;;;;;0.00;0.00;;;;;;;16.62;59.91;100380.34;7365238;19;20014;-59
2023/08/25 07:28:56;;;;;;;0.03;0.03;;;;;;;16.66;60.36;100386.31;7362725;19;20055;-58
2023/08/25 07:31:22;;;;;;;0.03;0.03;;;;;;;16.68;59.91;100384.47;7362513;19;20115;-56
2023/08/25 07:33:47;;;;;;;0.10;0.10;;;;;;;16.69;59.90;100381.75;7365096;19;20018;-57
2023/08/25 07:36:13;;;;;;;0.00;0.00;;;;;;;16.73;59.82;100387.75;7363459;19;20078;-57
2023/08/25 07:38:38;;;;;;;0.00;0.00;;;;;;;16.76;60.38;100384.91;7363521;19;20017;-58
2023/08/25 07:41:04;;;;;;;0.10;0.10;;;;;;;16.70;59.97;100372.88;7371365;19;20014;-58
2023/08/25 07:43:30;;;;;;;0.00;0.00;;;;;;;16.81;60.32;100381.09;7367263;19;20018;-57
2023/08/25 07:45:56;;;;;;;0.10;0.10;;;;;;;16.83;59.99;100370.50;7366390;19;20003;-58
2023/08/25 07:48:22;;;;;;;0.10;0.10;;;;;;;16.78;60.04;100362.81;7374103;19;20052;-55
2023/08/25 07:50:48;;;;;;;0.10;0.10;;;;;;;16.96;60.33;100378.56;7370430;19;20049;-58
2023/08/25 07:53:14;;;;;;;0.00;0.00;;;;;;;17.02;60.25;100383.50;7366682;19;20276;-58
2023/08/25 07:55:40;;;;;;;0.10;0.10;;;;;;;17.12;60.50;100382.06;7369558;19;20003;-58
2023/08/25 07:58:07;;;;;;;0.10;0.10;;;;;;;17.23;60.53;100381.47;7372796;19;20686;-58
2023/08/25 08:00:32;;;;;;;0.10;0.10;;;;;;;17.34;60.52;100379.97;7372223;19;20107;-57
2023/08/25 08:02:58;;;;;;;0.05;0.05;;;;;;;17.46;59.92;100380.22;7365702;19;20018;-56
2023/08/25 08:05:23;;;;;;;0.00;0.00;;;;;;;17.56;59.74;100384.03;7369812;19;20010;-59
2023/08/25 08:07:49;;;;;;;0.00;0.00;;;;;;;17.61;59.71;100374.06;7367622;19;20070;-59
2023/08/25 08:10:17;;;;;;;0.10;0.10;;;;;;;17.75;59.30;100383.88;7363504;19;20018;-59
2023/08/25 08:12:43;;;;;;;0.00;0.00;;;;;;;17.83;59.02;100381.63;7373417;19;20038;-57
2023/08/25 08:15:10;;;;;;;0.10;0.10;;;;;;;17.92;59.28;100372.31;7371516;19;20494;-59
2023/08/25 08:17:35;;;;;;;0.10;0.10;;;;;;;17.99;58.91;100371.84;7366904;19;20002;-57
2023/08/25 08:20:03;;;;;;;0.00;0.00;;;;;;;18.07;58.62;100379.34;7371980;19;20003;-56
2023/08/25 08:22:29;;;;;;;0.10;0.10;;;;;;;18.13;58.67;100378.97;7366740;19;20010;-56
2023/08/25 08:24:54;;;;;;;0.00;0.00;;;;;;;18.18;58.70;100374.28;7367027;19;20089;-58
2023/08/25 08:27:20;;;;;;;0.10;0.10;;;;;;;18.23;58.33;100380.13;7365093;19;20363;-57
2023/08/25 08:29:47;;;;;;;0.10;0.10;;;;;;;18.27;58.17;100386.09;7358472;19;20060;-58
2023/08/25 08:32:13;;;;;;;0.10;0.10;;;;;;;18.32;58.14;100376.09;7368898;19;20016;-57
2023/08/25 08:34:39;;;;;;;0.10;0.10;;;;;;;18.37;58.56;100374.88;7367315;19;20010;-57
2023/08/25 08:37:05;;;;;;;0.10;0.10;;;;;;;18.44;58.32;100371.84;7365982;19;20055;-57
2023/08/25 08:39:32;;;;;;;0.10;0.10;;;;;;;18.52;58.40;100361.69;7373552;19;20490;-56
2023/08/25 08:41:59;;;;;;;0.10;0.10;;;;;;;18.60;57.83;100362.03;7372746;19;20018;-57
2023/08/25 08:44:25;;;;;;;0.10;0.10;;;;;;;18.68;58.12;100362.47;7375292;19;20033;-58
2023/08/25 08:46:53;;;;;;;0.00;0.00;;;;;;;18.74;57.89;100354.16;7375734;19;20472;-57
2023/08/25 08:49:22;;;;;;;0.10;0.10;;;;;;;18.84;58.07;100357.91;7375160;19;20781;-58
2023/08/25 08:51:49;;;;;;;0.10;0.10;;;;;;;18.90;57.63;100349.59;7375834;19;20030;-58
2023/08/25 08:54:19;;;;;;;0.00;0.00;;;;;;;19.15;57.30;100361.28;7380576;19;20025;-58
2023/08/25 08:56:48;;;;;;;0.00;0.00;;;;;;;19.31;57.48;100359.38;7376546;19;20346;-56
2023/08/25 08:59:14;;;;;;;0.10;0.10;;;;;;;19.52;57.15;100356.28;7376150;19;20466;-57
2023/08/25 09:01:40;;;;;;;0.10;0.10;;;;;;;19.66;56.86;100358.88;7374248;19;20006;-56
2023/08/25 09:04:08;;;;;;;0.10;0.10;;;;;;;19.87;56.27;100362.78;7373269;19;20015;-57
2023/08/25 09:06:36;;;;;;;0.10;0.10;;;;;;;20.04;55.89;100358.13;7374547;19;20661;-55
2023/08/25 09:09:08;;;;;;;0.10;0.10;;;;;;;20.21;55.77;100365.78;7374812;19;20022;-57
2023/08/25 09:11:35;;;;;;;0.10;0.10;;;;;;;20.37;55.42;100366.41;7377371;19;20015;-57
2023/08/25 09:14:04;;;;;;;0.10;0.10;;;;;;;20.47;54.68;100345.44;7371387;19;20013;-58
2023/08/25 09:16:35;;;;;;;0.10;0.10;;;;;;;20.68;54.26;100359.00;7377073;19;20038;-57
2023/08/25 09:19:05;;;;;;;0.08;0.08;;;;;;;20.75;53.86;100357.66;7346087;19;20186;-58
2023/08/25 09:21:30;;;;;;;0.10;0.10;;;;;;;20.73;53.61;100357.75;7371640;19;20029;-58
2023/08/25 09:23:58;;;;;;;0.10;0.10;;;;;;;20.73;53.56;100341.84;7374665;19;20612;-58
2023/08/25 09:26:25;;;;;;;0.10;0.10;;;;;;;20.86;52.67;100368.34;7371137;19;20022;-57
2023/08/25 09:28:55;;;;;;;0.10;0.10;;;;;;;20.93;53.40;100358.13;7376359;19;20035;-58
2023/08/25 09:31:22;;;;;;;0.10;0.10;;;;;;;20.95;52.20;100356.22;7375398;19;20011;-58
2023/08/25 09:33:49;;;;;;;0.10;0.10;;;;;;;21.01;51.90;100365.56;7372636;19;20353;-57
2023/08/25 09:36:15;;;;;;;0.10;0.10;;;;;;;21.03;52.40;100364.47;7373346;19;20401;-58
2023/08/25 09:38:46;;;;;;;0.10;0.10;;;;;;;21.08;52.52;100362.34;7373323;19;20062;-57
2023/08/25 09:41:12;;;;;;;0.10;0.10;;;;;;;21.08;52.09;100362.34;7371618;19;20003;-58
2023/08/25 09:43:40;;;;;;;0.10;0.10;;;;;;;21.16;52.10;100372.44;7371162;19;20086;-58
2023/08/25 09:46:08;;;;;;;0.10;0.10;;;;;;;21.22;52.02;100370.16;7374498;19;20470;-57
2023/08/25 09:48:35;;;;;;;0.10;0.10;;;;;;;21.24;51.92;100368.28;7366921;19;20250;-58
2023/08/25 09:51:01;;;;;;;0.10;0.10;;;;;;;21.30;51.58;100372.31;7373455;19;20033;-58
2023/08/25 09:53:31;;;;;;;0.00;0.00;;;;;;;21.32;51.61;100365.06;7373257;19;20018;-56
2023/08/25 09:56:02;;;;;;;0.10;0.10;;;;;;;21.46;51.27;100375.53;7368749;19;20026;-58
2023/08/25 09:58:28;;;;;;;0.10;0.10;;;;;;;21.45;51.02;100370.34;7368496;19;20018;-57
2023/08/25 10:00:54;;;;;;;0.10;0.10;;;;;;;21.49;50.75;100377.13;7374369;19;20014;-57
2023/08/25 10:03:20;;;;;;;0.10;0.10;;;;;;;21.50;50.65;100377.03;7371097;19;20046;-57
2023/08/25 10:05:46;;;;;;;0.10;0.10;;;;;;;21.54;50.95;100376.78;7356440;19;20010;-58
2023/08/25 10:08:12;;;;;;;0.03;0.03;;;;;;;21.61;51.27;100375.38;7354170;19;20014;-57
2023/08/25 10:10:38;;;;;;;0.10;0.10;;;;;;;21.69;50.90;100375.66;7352902;19;20483;-57
2023/08/25 10:13:05;;;;;;;0.10;0.10;;;;;;;21.79;50.96;100374.00;7355316;19;20372;-57
2023/08/25 10:15:31;;;;;;;0.10;0.10;;;;;;;21.95;50.22;100379.88;7356834;19;20397;-57
2023/08/25 10:18:06;;;;;;;0.10;0.10;;;;;;;22.17;50.88;100383.59;7370580;19;20021;-57
2023/08/25 10:20:35;;;;;;;0.10;0.10;;;;;;;22.27;49.98;100384.59;7368775;19;20482;-58
2023/08/25 10:23:04;;;;;;;0.10;0.10;;;;;;;22.39;49.19;100391.63;7370199;19;20376;-57
2023/08/25 10:25:30;;;;;;;0.10;0.10;;;;;;;22.47;48.79;100381.25;7368261;19;20037;-58
2023/08/25 10:27:58;;;;;;;0.10;0.10;;;;;;;22.64;48.81;100387.06;7369200;19;20014;-58
2023/08/25 10:30:26;;;;;;;0.10;0.10;;;;;;;22.71;48.61;100390.97;7365408;19;20011;-58
2023/08/25 10:33:07;;;;;;;0.10;0.10;;;;;;;22.84;48.30;100386.34;7370998;19;20074;-55
2023/08/25 10:35:39;;;;;;;0.10;0.10;;;;;;;22.96;48.64;100392.53;7368622;19;20355;-57
2023/08/25 10:38:22;;;;;;;0.10;0.10;;;;;;;22.92;47.69;100375.13;7364189;19;20383;-57
2023/08/25 10:40:57;;;;;;;0.10;0.10;;;;;;;23.06;48.04;100388.16;7372820;19;20006;-57
2023/08/25 10:43:32;;;;;;;0.10;0.10;;;;;;;23.12;47.71;100387.72;7371373;19;20384;-57
2023/08/25 10:46:01;;;;;;;0.10;0.10;;;;;;;23.23;47.35;100384.19;7371546;19;20793;-57
2023/08/25 10:48:27;;;;;;;0.03;0.03;;;;;;;23.29;47.54;100384.53;7367730;19;20502;-58
2023/08/25 10:50:53;;;;;;;0.10;0.10;;;;;;;23.50;46.66;100371.25;7369327;19;20006;-58
2023/08/25 10:53:49;;;;;;;0.05;0.05;;;;;;;23.92;48.77;100376.69;7369145;19;20581;-57
2023/08/25 10:56:17;;;;;;;0.10;0.10;;;;;;;24.26;46.67;100380.03;7367357;19;20082;-58
2023/08/25 10:58:55;;;;;;;0.10;0.10;;;;;;;24.39;46.40;100358.53;7365857;19;20022;-58
2023/08/25 11:01:23;;;;;;;0.10;0.10;;;;;;;24.83;46.16;100367.16;7368649;19;20016;-58
2023/08/25 11:04:24;;;;;;;0.00;0.00;;;;;;;25.15;47.43;100355.50;7372318;19;20014;-57
2023/08/25 11:06:55;;;;;;;0.00;0.00;;;;;;;25.50;45.79;100355.84;7371386;19;20089;-57
2023/08/25 11:09:20;;;;;;;0.00;0.00;;;;;;;25.86;44.29;100362.34;7340806;19;20367;-58
2023/08/25 11:11:54;;;;;;;0.10;0.10;;;;;;;26.26;44.62;100363.16;7357986;19;20074;-58
2023/08/25 11:14:20;;;;;;;0.10;0.10;;;;;;;26.65;43.34;100359.38;7357742;19;20011;-58
2023/08/25 11:16:47;;;;;;;0.08;0.08;;;;;;;26.99;41.36;100361.50;7363283;19;20011;-58
2023/08/25 11:19:15;;;;;;;0.10;0.10;;;;;;;27.36;41.94;100349.88;7357345;19;20019;-58
2023/08/25 11:21:41;;;;;;;0.10;0.10;;;;;;;27.53;41.04;100349.06;7364586;19;20363;-57
2023/08/25 11:24:07;;;;;;;0.10;0.10;;;;;;;27.76;41.40;100337.88;7363412;19;20006;-58